Time;durP1;ratioP1;P1;durP2;ratioP2;P2;SDS_P1;SDS_P2;PMS_P1;PMS_P2;Temp;Humidity;BMP_temperature;BMP_pressure;BME280_temperature;BME280_humidity;BME280_pressure;Samples;Min_cycle;Max_cycle;Signal;HPM_P1;HPM_P2
2021/12/03 00:01:32;;;;;;;48.33;5.20;;;;;;;;;;5014152;28;20129;-76
2021/12/03 00:03:59;;;;;;;59.25;4.35;;;;;;;;;;4995471;28;20513;-72
2021/12/03 00:06:27;;;;;;;47.58;4.97;;;;;;;;;;5013576;28;20044;-74
2021/12/03 00:08:56;;;;;;;53.13;6.15;;;;;;;;;;4996461;28;20505;-75
2021/12/03 00:11:24;;;;;;;56.38;5.45;;;;;;;;;;5013611;28;20088;-76
2021/12/03 00:13:52;;;;;;;62.45;6.07;;;;;;;;;;4996314;28;20042;-71
2021/12/03 00:16:19;;;;;;;55.88;6.15;;;;;;;;;;4996219;28;20038;-74
2021/12/03 00:18:47;;;;;;;41.75;4.38;;;;;;;;;;4994234;28;20046;-75
2021/12/03 00:21:16;;;;;;;53.42;5.20;;;;;;;;;;4994839;28;20141;-75
2021/12/03 00:23:44;;;;;;;65.50;5.90;;;;;;;;;;5012467;28;20121;-70
2021/12/03 00:26:12;;;;;;;47.33;4.82;;;;;;;;;;5012089;28;20485;-73
2021/12/03 00:28:40;;;;;;;49.45;5.05;;;;;;;;;;5012508;28;20045;-74
2021/12/03 00:31:08;;;;;;;54.15;5.20;;;;;;;;;;5012098;28;20045;-74
2021/12/03 00:33:36;;;;;;;41.50;4.25;;;;;;;;;;5011652;28;20076;-75
2021/12/03 00:36:06;;;;;;;49.15;5.45;;;;;;;;;;5012764;28;20046;-74
2021/12/03 00:38:39;;;;;;;47.30;4.75;;;;;;;;;;4996179;28;20045;-75
2021/12/03 00:41:08;;;;;;;47.38;5.55;;;;;;;;;;4996154;28;20045;-74
2021/12/03 00:43:40;;;;;;;47.28;5.57;;;;;;;;;;4995322;28;20046;-71
2021/12/03 00:46:09;;;;;;;51.72;4.82;;;;;;;;;;5012760;28;20048;-70
2021/12/03 00:48:38;;;;;;;48.20;4.32;;;;;;;;;;5013287;28;20057;-75
2021/12/03 00:51:07;;;;;;;55.03;5.97;;;;;;;;;;5013150;28;20052;-74
2021/12/03 00:53:35;;;;;;;54.38;5.20;;;;;;;;;;4995570;28;20038;-71
2021/12/03 00:56:03;;;;;;;52.50;5.68;;;;;;;;;;4995407;28;20490;-74
2021/12/03 00:58:30;;;;;;;44.13;4.70;;;;;;;;;;5013419;28;20034;-74
2021/12/03 01:00:59;;;;;;;35.17;4.88;;;;;;;;;;5012857;28;20481;-74
2021/12/03 01:03:27;;;;;;;61.80;5.43;;;;;;;;;;5012838;28;20072;-74
2021/12/03 01:05:55;;;;;;;45.92;4.45;;;;;;;;;;5013002;28;20132;-74
2021/12/03 01:08:22;;;;;;;64.57;5.53;;;;;;;;;;5012735;28;20057;-71
2021/12/03 01:10:51;;;;;;;52.10;6.20;;;;;;;;;;5013111;28;20065;-71
2021/12/03 01:13:19;;;;;;;58.45;4.85;;;;;;;;;;5012897;28;20061;-74
2021/12/03 01:15:46;;;;;;;43.83;4.88;;;;;;;;;;4995309;28;20033;-75
2021/12/03 01:18:14;;;;;;;46.13;5.72;;;;;;;;;;4995513;28;20042;-73
2021/12/03 01:20:44;;;;;;;54.70;5.10;;;;;;;;;;5013117;28;20050;-71
2021/12/03 01:23:12;;;;;;;61.70;5.20;;;;;;;;;;5013106;28;20061;-75
2021/12/03 01:25:40;;;;;;;61.50;6.40;;;;;;;;;;4995005;28;20042;-74
2021/12/03 01:28:08;;;;;;;53.85;6.35;;;;;;;;;;4995239;28;20046;-71
2021/12/03 01:30:36;;;;;;;42.20;5.20;;;;;;;;;;4994769;28;20046;-72
2021/12/03 01:33:06;;;;;;;40.85;4.85;;;;;;;;;;5012861;28;20049;-71
2021/12/03 01:35:34;;;;;;;42.78;5.75;;;;;;;;;;5006986;28;20052;-72
2021/12/03 01:38:02;;;;;;;55.03;5.80;;;;;;;;;;4976418;28;20486;-75
2021/12/03 01:40:31;;;;;;;59.47;7.05;;;;;;;;;;4993403;28;20042;-74
2021/12/03 01:42:58;;;;;;;62.53;5.63;;;;;;;;;;4992850;28;20042;-74
2021/12/03 01:45:28;;;;;;;44.65;5.15;;;;;;;;;;4992524;28;20040;-73
2021/12/03 01:47:57;;;;;;;57.22;6.70;;;;;;;;;;4977308;28;20069;-74
2021/12/03 01:50:29;;;;;;;50.72;5.13;;;;;;;;;;4979505;28;20042;-74
2021/12/03 01:52:57;;;;;;;58.97;6.50;;;;;;;;;;4979288;28;20137;-74
2021/12/03 01:55:24;;;;;;;53.45;5.57;;;;;;;;;;4979426;28;20046;-73
2021/12/03 01:57:52;;;;;;;47.70;5.18;;;;;;;;;;4996544;28;20407;-74
2021/12/03 02:00:22;;;;;;;39.70;5.10;;;;;;;;;;4996338;28;20049;-71
2021/12/03 02:02:50;;;;;;;51.33;5.32;;;;;;;;;;4996409;28;20053;-74
2021/12/03 02:05:18;;;;;;;39.65;4.68;;;;;;;;;;4978952;28;20105;-71
2021/12/03 02:07:45;;;;;;;52.22;4.95;;;;;;;;;;4996127;28;20054;-74
2021/12/03 02:10:14;;;;;;;49.83;6.43;;;;;;;;;;4979216;28;20413;-75
2021/12/03 02:12:42;;;;;;;50.30;5.35;;;;;;;;;;4996226;28;20046;-71
2021/12/03 02:15:10;;;;;;;32.53;4.72;;;;;;;;;;4996088;28;20050;-72
2021/12/03 02:17:38;;;;;;;39.10;4.93;;;;;;;;;;4996220;28;20508;-75
2021/12/03 02:20:12;;;;;;;35.47;4.13;;;;;;;;;;4978845;28;20049;-74
2021/12/03 02:22:41;;;;;;;41.55;4.85;;;;;;;;;;4995785;28;20501;-75
2021/12/03 02:25:11;;;;;;;53.38;4.82;;;;;;;;;;4995970;28;20046;-71
2021/12/03 02:27:38;;;;;;;56.85;5.55;;;;;;;;;;4995883;28;20039;-73
2021/12/03 02:30:06;;;;;;;48.95;5.63;;;;;;;;;;4996300;28;20046;-75
2021/12/03 02:32:34;;;;;;;45.92;5.30;;;;;;;;;;4978014;28;20052;-74
2021/12/03 02:35:01;;;;;;;41.28;5.47;;;;;;;;;;4995747;28;20042;-74
2021/12/03 02:37:29;;;;;;;45.25;5.18;;;;;;;;;;4996177;28;20034;-71
2021/12/03 02:39:57;;;;;;;38.47;5.00;;;;;;;;;;4996269;28;20064;-74
2021/12/03 02:42:24;;;;;;;45.97;4.53;;;;;;;;;;4995380;28;20050;-74
2021/12/03 02:44:51;;;;;;;49.95;4.93;;;;;;;;;;4978462;28;20494;-71
2021/12/03 02:47:19;;;;;;;39.83;4.57;;;;;;;;;;4978204;28;20053;-74
2021/12/03 02:49:48;;;;;;;42.10;5.13;;;;;;;;;;4978258;28;20046;-71
2021/12/03 02:52:16;;;;;;;44.08;4.68;;;;;;;;;;4978256;28;20046;-71
2021/12/03 02:54:43;;;;;;;31.55;4.47;;;;;;;;;;4995292;28;20046;-71
2021/12/03 02:57:11;;;;;;;43.75;4.95;;;;;;;;;;4978127;28;20034;-75
2021/12/03 02:59:38;;;;;;;32.55;4.38;;;;;;;;;;4977795;28;20035;-75
2021/12/03 03:02:06;;;;;;;37.53;4.38;;;;;;;;;;4978335;28;20073;-72
2021/12/03 03:04:50;;;;;;;41.20;5.13;;;;;;;;;;4980594;28;20487;-74
2021/12/03 03:07:19;;;;;;;36.42;4.40;;;;;;;;;;5005080;28;20037;-74
2021/12/03 03:09:46;;;;;;;31.85;4.95;;;;;;;;;;4997463;28;20406;-75
2021/12/03 03:12:14;;;;;;;32.13;4.60;;;;;;;;;;5014698;28;20041;-73
2021/12/03 03:14:45;;;;;;;33.03;4.53;;;;;;;;;;4997619;28;20117;-75
2021/12/03 03:17:13;;;;;;;50.65;5.65;;;;;;;;;;4980900;28;20152;-74
2021/12/03 03:19:40;;;;;;;36.72;4.63;;;;;;;;;;4997033;28;20045;-71
2021/12/03 03:22:08;;;;;;;47.65;5.57;;;;;;;;;;4997309;28;20764;-74
2021/12/03 03:24:36;;;;;;;31.63;4.00;;;;;;;;;;4996959;28;20425;-74
2021/12/03 03:27:04;;;;;;;27.92;4.03;;;;;;;;;;4996355;28;20038;-74
2021/12/03 03:29:31;;;;;;;38.67;4.50;;;;;;;;;;4980852;28;20521;-71
2021/12/03 03:31:59;;;;;;;42.20;4.25;;;;;;;;;;4996716;28;20412;-74
2021/12/03 03:34:26;;;;;;;46.60;5.03;;;;;;;;;;5014525;28;20496;-75
2021/12/03 03:36:54;;;;;;;38.85;4.43;;;;;;;;;;4980951;28;20700;-71
2021/12/03 03:39:22;;;;;;;44.08;4.80;;;;;;;;;;5014746;28;20041;-74
2021/12/03 03:41:50;;;;;;;35.30;4.63;;;;;;;;;;4996466;28;20056;-74
2021/12/03 03:44:20;;;;;;;40.85;4.72;;;;;;;;;;4996745;28;20045;-74
2021/12/03 03:46:49;;;;;;;30.58;4.18;;;;;;;;;;5014149;28;20076;-74
2021/12/03 03:49:17;;;;;;;43.70;5.82;;;;;;;;;;4996735;28;20074;-74
2021/12/03 03:51:46;;;;;;;32.90;5.95;;;;;;;;;;5014105;28;20057;-74
2021/12/03 03:54:14;;;;;;;37.15;7.78;;;;;;;;;;5014075;28;20038;-74
2021/12/03 03:56:42;;;;;;;38.35;7.05;;;;;;;;;;4995641;28;20042;-74
2021/12/03 03:59:10;;;;;;;40.90;6.25;;;;;;;;;;4996895;28;20552;-74
2021/12/03 04:01:41;;;;;;;42.60;5.93;;;;;;;;;;4997006;28;20044;-75
2021/12/03 04:04:09;;;;;;;38.65;5.60;;;;;;;;;;5013970;28;20049;-74
2021/12/03 04:06:36;;;;;;;38.55;7.22;;;;;;;;;;5013741;28;20045;-75
2021/12/03 04:09:04;;;;;;;41.67;8.10;;;;;;;;;;5013338;28;20133;-74
2021/12/03 04:11:31;;;;;;;31.58;5.90;;;;;;;;;;4995292;28;20413;-75
2021/12/03 04:13:59;;;;;;;44.50;5.78;;;;;;;;;;4996204;28;20511;-75
2021/12/03 04:16:26;;;;;;;47.47;6.13;;;;;;;;;;5013924;28;20042;-75
2021/12/03 04:18:54;;;;;;;48.20;5.55;;;;;;;;;;4996178;28;20412;-74
2021/12/03 04:21:22;;;;;;;39.35;6.95;;;;;;;;;;5013769;28;20097;-73
2021/12/03 04:23:49;;;;;;;38.83;6.53;;;;;;;;;;5012940;28;20038;-75
2021/12/03 04:26:17;;;;;;;33.63;6.03;;;;;;;;;;4995910;28;20046;-71
2021/12/03 04:28:45;;;;;;;47.22;6.65;;;;;;;;;;5013197;28;20042;-74
2021/12/03 04:31:12;;;;;;;41.88;6.18;;;;;;;;;;5013449;28;20052;-71
2021/12/03 04:33:40;;;;;;;39.78;5.72;;;;;;;;;;4995954;28;20049;-74
2021/12/03 04:36:08;;;;;;;32.45;4.90;;;;;;;;;;5013531;28;20042;-75
2021/12/03 04:38:35;;;;;;;42.55;5.00;;;;;;;;;;4995321;28;20048;-74
2021/12/03 04:41:03;;;;;;;51.45;5.22;;;;;;;;;;4995602;28;20385;-75
2021/12/03 04:43:31;;;;;;;40.92;4.95;;;;;;;;;;5013244;28;20434;-75
2021/12/03 04:45:59;;;;;;;51.75;5.07;;;;;;;;;;4995533;28;20054;-75
2021/12/03 04:48:27;;;;;;;44.60;4.97;;;;;;;;;;5013454;28;20074;-75
2021/12/03 04:50:54;;;;;;;30.23;4.07;;;;;;;;;;5013387;28;20474;-75
2021/12/03 04:53:22;;;;;;;31.42;5.22;;;;;;;;;;5012597;28;20044;-75
2021/12/03 04:55:50;;;;;;;40.35;7.80;;;;;;;;;;4995508;28;20052;-71
2021/12/03 04:58:18;;;;;;;39.05;5.82;;;;;;;;;;4996011;28;20038;-75
2021/12/03 05:00:48;;;;;;;38.00;6.07;;;;;;;;;;4995871;28;20038;-71
2021/12/03 05:03:19;;;;;;;42.20;5.07;;;;;;;;;;4995184;28;20136;-75
2021/12/03 05:05:52;;;;;;;30.85;4.68;;;;;;;;;;5012909;28;20088;-75
2021/12/03 05:08:20;;;;;;;38.25;4.50;;;;;;;;;;4994119;28;20130;-71
2021/12/03 05:10:48;;;;;;;39.75;4.55;;;;;;;;;;4995276;28;20053;-75
2021/12/03 05:13:17;;;;;;;54.03;5.57;;;;;;;;;;4995345;28;20498;-75
2021/12/03 05:15:46;;;;;;;35.05;4.82;;;;;;;;;;5013111;28;20042;-74
2021/12/03 05:18:14;;;;;;;38.67;4.28;;;;;;;;;;4979187;28;20437;-71
2021/12/03 05:20:43;;;;;;;44.50;5.07;;;;;;;;;;4979184;28;20093;-75
2021/12/03 05:23:11;;;;;;;36.05;7.00;;;;;;;;;;4997093;28;20046;-74
2021/12/03 05:25:39;;;;;;;48.60;4.68;;;;;;;;;;5016533;28;20042;-75
2021/12/03 05:28:07;;;;;;;37.97;5.78;;;;;;;;;;4999061;28;20041;-71
2021/12/03 05:30:35;;;;;;;42.55;7.00;;;;;;;;;;4982974;28;20046;-74
2021/12/03 05:33:02;;;;;;;34.92;5.18;;;;;;;;;;4998783;28;20048;-75
2021/12/03 05:35:30;;;;;;;33.88;8.25;;;;;;;;;;4998845;28;20037;-74
2021/12/03 05:37:58;;;;;;;42.75;11.82;;;;;;;;;;5016089;28;20038;-74
2021/12/03 05:40:26;;;;;;;48.65;9.98;;;;;;;;;;5016561;28;20038;-75
2021/12/03 05:42:53;;;;;;;41.22;7.85;;;;;;;;;;4998290;28;20041;-74
2021/12/03 05:45:24;;;;;;;45.38;7.13;;;;;;;;;;4999530;28;20045;-71
2021/12/03 05:47:52;;;;;;;53.67;17.77;;;;;;;;;;5016533;28;20133;-74
2021/12/03 05:50:20;;;;;;;38.50;6.65;;;;;;;;;;4998572;28;20516;-73
2021/12/03 05:52:50;;;;;;;38.30;5.45;;;;;;;;;;4998709;28;20049;-74
2021/12/03 05:55:17;;;;;;;27.20;4.78;;;;;;;;;;4998225;28;20046;-71
2021/12/03 05:57:45;;;;;;;43.30;5.03;;;;;;;;;;4999070;28;20045;-74
2021/12/03 06:00:15;;;;;;;38.58;6.93;;;;;;;;;;5016015;28;20045;-74
2021/12/03 06:02:43;;;;;;;46.00;5.60;;;;;;;;;;5016046;28;20065;-75
2021/12/03 06:05:11;;;;;;;46.22;5.32;;;;;;;;;;5015554;28;20477;-74
2021/12/03 06:07:39;;;;;;;39.25;5.15;;;;;;;;;;5015594;28;20057;-74
2021/12/03 06:10:07;;;;;;;41.67;5.82;;;;;;;;;;4998812;28;20071;-71
2021/12/03 06:12:34;;;;;;;39.05;5.85;;;;;;;;;;4982075;28;20049;-74
2021/12/03 06:15:05;;;;;;;38.13;5.85;;;;;;;;;;4998287;28;20450;-73
2021/12/03 06:17:32;;;;;;;54.75;5.88;;;;;;;;;;5016021;28;20038;-74
2021/12/03 06:20:00;;;;;;;52.42;7.05;;;;;;;;;;5015185;28;20052;-75
2021/12/03 06:22:28;;;;;;;44.35;4.75;;;;;;;;;;4998150;28;20046;-74
2021/12/03 06:24:56;;;;;;;44.60;5.88;;;;;;;;;;4998008;28;20054;-75
2021/12/03 06:27:25;;;;;;;43.90;6.40;;;;;;;;;;4998139;28;20594;-74
2021/12/03 06:29:52;;;;;;;39.95;6.65;;;;;;;;;;5015345;28;20517;-73
2021/12/03 06:32:20;;;;;;;44.00;6.70;;;;;;;;;;5014540;28;20046;-72
2021/12/03 06:34:48;;;;;;;68.22;9.90;;;;;;;;;;4978868;28;20048;-74
2021/12/03 06:37:15;;;;;;;64.55;9.23;;;;;;;;;;5014512;28;20474;-75
2021/12/03 06:39:43;;;;;;;104.13;13.68;;;;;;;;;;5015166;28;20038;-73
2021/12/03 06:42:11;;;;;;;43.53;8.95;;;;;;;;;;4997306;28;20418;-75
2021/12/03 06:44:38;;;;;;;63.47;9.05;;;;;;;;;;4997160;28;20057;-74
2021/12/03 06:47:06;;;;;;;51.92;9.70;;;;;;;;;;4997210;28;20050;-74
2021/12/03 06:49:34;;;;;;;62.42;9.90;;;;;;;;;;4981415;28;20049;-75
2021/12/03 06:52:09;;;;;;;51.22;9.82;;;;;;;;;;4979340;28;20042;-74
2021/12/03 06:54:37;;;;;;;81.90;11.65;;;;;;;;;;4977813;28;20053;-75
2021/12/03 06:57:06;;;;;;;128.88;18.50;;;;;;;;;;4995242;28;20380;-75
2021/12/03 06:59:34;;;;;;;76.95;11.23;;;;;;;;;;4977465;28;20042;-71
2021/12/03 07:02:01;;;;;;;56.75;9.57;;;;;;;;;;4994838;28;20042;-72
2021/12/03 07:04:29;;;;;;;46.30;8.18;;;;;;;;;;4976924;28;20344;-72
2021/12/03 07:06:57;;;;;;;38.88;6.05;;;;;;;;;;4994657;28;20490;-75
2021/12/03 07:09:24;;;;;;;51.72;7.20;;;;;;;;;;4994565;28;20050;-75
2021/12/03 07:11:52;;;;;;;56.40;8.25;;;;;;;;;;4977761;28;20050;-74
2021/12/03 07:14:20;;;;;;;40.10;7.43;;;;;;;;;;4995087;28;20038;-75
2021/12/03 07:16:47;;;;;;;49.47;8.10;;;;;;;;;;4976855;28;20510;-72
2021/12/03 07:19:16;;;;;;;41.63;7.75;;;;;;;;;;4994610;28;20405;-70
2021/12/03 07:21:43;;;;;;;59.80;8.13;;;;;;;;;;4977637;28;20034;-71
2021/12/03 07:24:11;;;;;;;58.75;9.00;;;;;;;;;;4961387;28;20516;-72
2021/12/03 07:26:38;;;;;;;59.13;11.15;;;;;;;;;;4994792;28;20038;-72
2021/12/03 07:29:06;;;;;;;56.03;10.25;;;;;;;;;;4977663;28;20152;-72
2021/12/03 07:31:34;;;;;;;62.10;12.63;;;;;;;;;;4994263;28;20042;-71
2021/12/03 07:34:01;;;;;;;63.08;13.13;;;;;;;;;;4994014;28;20038;-75
2021/12/03 07:36:29;;;;;;;59.70;11.93;;;;;;;;;;4994193;28;20051;-72
2021/12/03 07:38:56;;;;;;;48.97;10.55;;;;;;;;;;4994616;28;20046;-75
2021/12/03 07:41:25;;;;;;;47.47;9.13;;;;;;;;;;4994315;28;20066;-75
2021/12/03 07:43:58;;;;;;;59.03;8.43;;;;;;;;;;4994035;28;20116;-72
2021/12/03 07:46:26;;;;;;;51.63;7.40;;;;;;;;;;4976126;28;20058;-71
2021/12/03 07:48:53;;;;;;;39.35;6.70;;;;;;;;;;4976705;28;20421;-74
2021/12/03 07:51:21;;;;;;;39.30;6.60;;;;;;;;;;4977055;28;20042;-72
2021/12/03 07:53:48;;;;;;;38.22;6.38;;;;;;;;;;4994366;28;20125;-75
2021/12/03 07:56:16;;;;;;;61.30;5.95;;;;;;;;;;4993957;28;20046;-71
2021/12/03 07:58:43;;;;;;;54.13;5.85;;;;;;;;;;4994043;28;20113;-71
2021/12/03 08:01:11;;;;;;;52.03;7.85;;;;;;;;;;4993572;28;20038;-75
2021/12/03 08:03:38;;;;;;;35.78;5.55;;;;;;;;;;4976887;28;20137;-72
2021/12/03 08:06:08;;;;;;;55.67;5.57;;;;;;;;;;4976667;28;20605;-72
2021/12/03 08:08:39;;;;;;;46.35;4.88;;;;;;;;;;4993807;23;20524;-75
2021/12/03 08:11:07;;;;;;;49.42;5.05;;;;;;;;;;4994229;28;20042;-75
2021/12/03 08:13:35;;;;;;;39.95;5.03;;;;;;;;;;4994107;28;20503;-72
2021/12/03 08:16:03;;;;;;;43.45;5.60;;;;;;;;;;4992586;28;20039;-70
2021/12/03 08:18:31;;;;;;;57.30;5.93;;;;;;;;;;4994076;28;20500;-75
2021/12/03 08:20:59;;;;;;;46.33;5.28;;;;;;;;;;4976266;28;20073;-74
2021/12/03 08:23:27;;;;;;;54.38;6.07;;;;;;;;;;4992861;28;20053;-72
2021/12/03 08:25:54;;;;;;;42.05;6.30;;;;;;;;;;4994160;28;20513;-72
2021/12/03 08:28:22;;;;;;;43.03;6.10;;;;;;;;;;4976151;28;20045;-75
2021/12/03 08:30:51;;;;;;;46.35;6.07;;;;;;;;;;4993424;28;20118;-74
2021/12/03 08:33:19;;;;;;;48.03;5.50;;;;;;;;;;4992382;28;20046;-72
2021/12/03 08:35:47;;;;;;;43.63;5.10;;;;;;;;;;4993427;28;20371;-75
2021/12/03 08:38:15;;;;;;;41.13;5.50;;;;;;;;;;4993671;28;20066;-74
2021/12/03 08:41:03;;;;;;;40.53;6.38;;;;;;;;;;4993848;28;20528;-71
2021/12/03 08:43:31;;;;;;;33.53;5.40;;;;;;;;;;4993302;28;20462;-75
2021/12/03 08:46:07;;;;;;;33.60;5.25;;;;;;;;;;4991967;28;20169;-74
2021/12/03 08:48:37;;;;;;;51.65;6.18;;;;;;;;;;4992297;28;20490;-75
2021/12/03 08:56:35;;;;;;;40.40;5.03;;;;;;;;;;4991223;28;20581;-75
2021/12/03 08:59:04;;;;;;;45.80;5.03;;;;;;;;;;4991475;28;20046;-75
2021/12/03 09:01:31;;;;;;;31.80;4.35;;;;;;;;;;4991928;28;20047;-74
2021/12/03 09:03:59;;;;;;;43.47;5.28;;;;;;;;;;4976264;28;20050;-71
2021/12/03 09:06:27;;;;;;;37.92;4.80;;;;;;;;;;4993531;28;20045;-72
2021/12/03 09:08:54;;;;;;;47.08;4.78;;;;;;;;;;5008237;28;20130;-71
2021/12/03 09:11:24;;;;;;;41.45;5.18;;;;;;;;;;5012127;28;20072;-70
2021/12/03 09:13:52;;;;;;;36.58;5.53;;;;;;;;;;4994339;28;20050;-73
2021/12/03 09:16:21;;;;;;;45.30;5.90;;;;;;;;;;4978638;28;20049;-72
2021/12/03 09:18:50;;;;;;;34.78;5.97;;;;;;;;;;5012126;28;20042;-74
2021/12/03 09:21:33;;;;;;;34.67;5.13;;;;;;;;;;5011861;28;20046;-72
2021/12/03 09:24:12;;;;;;;35.33;5.70;;;;;;;;;;4994246;28;20060;-71
2021/12/03 09:26:42;;;;;;;27.70;5.15;;;;;;;;;;5012195;28;20065;-74
2021/12/03 09:29:12;;;;;;;33.58;5.72;;;;;;;;;;5012113;28;20112;-74
2021/12/03 09:31:44;;;;;;;34.97;4.95;;;;;;;;;;4994922;28;20042;-74
2021/12/03 09:34:15;;;;;;;35.13;6.60;;;;;;;;;;4995371;28;20415;-75
2021/12/03 09:36:43;;;;;;;28.23;5.55;;;;;;;;;;5012791;28;20038;-72
2021/12/03 09:39:17;;;;;;;25.83;5.15;;;;;;;;;;4995392;28;20046;-75
2021/12/03 09:41:45;;;;;;;30.17;6.65;;;;;;;;;;5012518;28;20744;-75
2021/12/03 09:44:19;;;;;;;31.20;6.90;;;;;;;;;;5011959;28;20038;-75
2021/12/03 09:46:48;;;;;;;25.25;5.32;;;;;;;;;;4979123;28;20068;-74
2021/12/03 09:57:11;;;;;;;24.40;5.97;;;;;;;;;;4993921;28;20043;-72
2021/12/03 10:13:25;;;;;;;30.13;6.45;;;;;;;;;;4984802;28;20054;-75
2021/12/03 10:18:59;;;;;;;21.98;4.93;;;;;;;;;;5015584;28;20038;-74
2021/12/03 10:29:39;;;;;;;25.77;5.28;;;;;;;;;;5015358;28;20485;-71
2021/12/03 10:40:29;;;;;;;17.75;4.68;;;;;;;;;;5015019;28;20106;-73
2021/12/03 10:46:00;;;;;;;19.48;5.13;;;;;;;;;;5015338;28;20395;-74
2021/12/03 10:54:19;;;;;;;;;;;;;;;;;;5015707;28;20485;-75
2021/12/03 11:17:28;;;;;;;31.42;5.03;;;;;;;;;;5014747;28;20044;-72
2021/12/03 11:25:40;;;;;;;30.60;4.47;;;;;;;;;;4996433;28;20413;-72
2021/12/03 12:19:01;;;;;;;22.67;3.72;;;;;;;;;;5013513;28;20120;-73
2021/12/03 13:09:40;;;;;;;10.10;2.92;;;;;;;;;;4970755;28;20480;-76
2021/12/03 13:12:38;;;;;;;14.98;2.75;;;;;;;;;;5012591;28;20137;-75
2021/12/03 14:14:54;;;;;;;2.95;1.75;;;;;;;;;;4993729;28;20129;-76
2021/12/03 14:36:34;;;;;;;4.00;1.17;;;;;;;;;;4993195;28;20042;-73
2021/12/03 14:41:33;;;;;;;3.13;1.38;;;;;;;;;;4975631;28;20050;-76
2021/12/03 14:44:11;;;;;;;3.53;1.52;;;;;;;;;;4992912;28;20050;-77
2021/12/03 14:52:31;;;;;;;4.28;1.70;;;;;;;;;;4992581;28;20053;-72
2021/12/03 14:54:52;;;;;;;2.75;1.85;;;;;;;;;;4988907;28;20065;-78
2021/12/03 15:08:21;;;;;;;2.78;1.50;;;;;;;;;;4977768;28;20611;-72
2021/12/03 15:21:32;;;;;;;4.10;2.13;;;;;;;;;;4992462;28;20385;-77
2021/12/03 15:57:00;;;;;;;3.30;1.58;;;;;;;;;;4912094;29;20056;-72
2021/12/03 16:05:32;;;;;;;4.30;1.95;;;;;;;;;;4927024;29;20056;-77
2021/12/03 16:52:44;;;;;;;3.60;1.95;;;;;;;;;;5012526;28;20038;-73
2021/12/03 16:55:14;;;;;;;4.03;2.25;;;;;;;;;;4995101;28;20044;-73
2021/12/03 16:57:43;;;;;;;2.92;2.15;;;;;;;;;;5012140;28;20065;-81
2021/12/03 17:03:02;;;;;;;5.60;2.50;;;;;;;;;;5012874;28;20050;-78
2021/12/03 17:11:10;;;;;;;4.60;2.90;;;;;;;;;;5011950;28;20287;-81
2021/12/03 17:49:01;;;;;;;8.93;5.68;;;;;;;;;;4994322;28;20122;-76
2021/12/03 17:52:10;;;;;;;14.85;9.13;;;;;;;;;;4994142;28;20497;-79
2021/12/03 17:57:23;;;;;;;10.13;6.80;;;;;;;;;;4975837;28;20046;-72
2021/12/03 17:59:52;;;;;;;8.48;6.03;;;;;;;;;;4976825;28;20051;-79
2021/12/03 18:02:37;;;;;;;8.13;5.00;;;;;;;;;;4994460;28;20069;-78
2021/12/03 18:47:08;;;;;;;2.70;1.70;;;;;;;;;;5014945;28;20142;-79
2021/12/03 18:57:12;;;;;;;1.15;0.63;;;;;;;;;;4992265;28;20050;-77
2021/12/03 19:00:02;;;;;;;0.68;0.68;;;;;;;;;;4992384;28;20049;-78
2021/12/03 19:02:30;;;;;;;2.70;1.25;;;;;;;;;;4986934;28;20068;-73
2021/12/03 19:05:12;;;;;;;1.77;1.67;;;;;;;;;;4984473;28;20053;-76
2021/12/03 19:08:02;;;;;;;1.80;1.70;;;;;;;;;;4972438;28;20050;-75
2021/12/03 19:10:33;;;;;;;2.75;2.13;;;;;;;;;;5010355;28;20437;-81
2021/12/03 19:13:09;;;;;;;3.58;1.35;;;;;;;;;;5011790;28;20137;-77
2021/12/03 19:15:40;;;;;;;2.38;1.42;;;;;;;;;;4978242;28;20107;-73
2021/12/03 19:18:09;;;;;;;4.43;2.20;;;;;;;;;;4992480;28;20038;-77
2021/12/03 19:20:52;;;;;;;10.32;4.30;;;;;;;;;;5012464;28;20053;-79
2021/12/03 19:23:20;;;;;;;8.07;4.93;;;;;;;;;;5019538;28;20038;-76
2021/12/03 19:25:47;;;;;;;8.98;4.55;;;;;;;;;;5011421;28;20129;-76
2021/12/03 19:28:19;;;;;;;7.28;3.90;;;;;;;;;;5012031;28;20117;-76
2021/12/03 19:30:47;;;;;;;7.07;3.88;;;;;;;;;;5013118;28;20503;-73
2021/12/03 19:33:14;;;;;;;7.10;4.20;;;;;;;;;;5013697;28;20511;-76
2021/12/03 19:35:42;;;;;;;9.18;4.43;;;;;;;;;;4992321;28;20057;-78
2021/12/03 19:38:17;;;;;;;12.75;6.15;;;;;;;;;;5002809;28;20054;-78
2021/12/03 19:40:57;;;;;;;10.95;6.63;;;;;;;;;;5013887;28;20052;-78
2021/12/03 19:43:35;;;;;;;19.80;8.73;;;;;;;;;;5004989;28;20046;-76
2021/12/03 19:46:05;;;;;;;15.25;7.90;;;;;;;;;;4989185;28;20053;-78
2021/12/03 19:48:44;;;;;;;14.48;8.52;;;;;;;;;;5005188;28;20050;-78
2021/12/03 19:51:14;;;;;;;9.98;5.45;;;;;;;;;;4986482;28;20042;-78
2021/12/03 19:53:54;;;;;;;6.18;3.85;;;;;;;;;;4987968;28;20053;-74
2021/12/03 19:56:25;;;;;;;6.10;3.88;;;;;;;;;;4999146;28;20069;-73
2021/12/03 19:58:52;;;;;;;5.13;3.70;;;;;;;;;;4984532;28;20461;-79
2021/12/03 20:01:20;;;;;;;5.95;3.30;;;;;;;;;;5010651;28;20084;-73
2021/12/03 20:03:52;;;;;;;8.55;3.85;;;;;;;;;;4995473;28;20125;-77
2021/12/03 20:06:20;;;;;;;5.20;3.38;;;;;;;;;;4995196;28;20040;-77
2021/12/03 20:08:52;;;;;;;5.57;3.50;;;;;;;;;;5098476;22;20491;-76
2021/12/03 20:11:20;;;;;;;5.88;3.35;;;;;;;;;;5013166;28;20044;-72
2021/12/03 20:13:50;;;;;;;6.05;3.47;;;;;;;;;;5012967;28;20037;-75
2021/12/03 20:18:51;;;;;;;4.57;2.75;;;;;;;;;;5013524;28;20631;-76
2021/12/03 20:21:21;;;;;;;4.05;2.88;;;;;;;;;;5012928;28;20121;-75
2021/12/03 20:31:44;;;;;;;3.63;2.50;;;;;;;;;;4995930;28;20046;-75
2021/12/03 20:37:51;;;;;;;3.67;2.70;;;;;;;;;;4991292;28;20054;-76
2021/12/03 20:39:48;;;;;;;5.28;4.15;;;;;;;;;;4976919;28;20399;-75
2021/12/03 20:42:26;;;;;;;4.50;3.38;;;;;;;;;;4974050;28;20066;-72
2021/12/03 20:45:12;;;;;;;3.97;3.00;;;;;;;;;;4973493;28;20125;-75
2021/12/03 21:09:39;;;;;;;8.85;6.10;;;;;;;;;;4953962;28;20483;-73
2021/12/03 21:12:16;;;;;;;7.80;5.45;;;;;;;;;;4979137;28;20042;-73
2021/12/03 21:14:58;;;;;;;10.30;5.22;;;;;;;;;;4973546;28;20129;-77
2021/12/03 21:20:27;;;;;;;9.98;5.10;;;;;;;;;;4990279;28;20042;-77
2021/12/03 21:23:02;;;;;;;4.47;3.70;;;;;;;;;;4990828;28;20064;-77
2021/12/03 21:25:37;;;;;;;4.20;3.30;;;;;;;;;;4973493;28;20038;-73
2021/12/03 21:28:47;;;;;;;5.15;3.10;;;;;;;;;;4989069;28;20077;-77
2021/12/03 21:31:17;;;;;;;4.70;3.20;;;;;;;;;;4990480;28;20784;-73
2021/12/03 21:39:08;;;;;;;0.80;0.80;;;;;;;;;;4990302;28;20398;-73
2021/12/03 21:41:37;;;;;;;1.38;0.65;;;;;;;;;;4990315;28;20453;-74
2021/12/03 21:44:08;;;;;;;1.33;0.60;;;;;;;;;;4990590;28;20055;-76
2021/12/03 21:46:39;;;;;;;2.10;0.93;;;;;;;;;;4990307;28;20477;-77
2021/12/03 21:49:08;;;;;;;1.58;0.73;;;;;;;;;;4990211;28;20121;-73
2021/12/03 21:51:36;;;;;;;2.00;1.00;;;;;;;;;;4972965;28;20100;-76
2021/12/03 21:54:08;;;;;;;2.43;1.17;;;;;;;;;;4990988;28;20490;-80
2021/12/03 21:56:36;;;;;;;3.35;0.75;;;;;;;;;;4972857;28;20050;-73
2021/12/03 21:59:03;;;;;;;2.05;0.80;;;;;;;;;;4980074;28;20046;-76
2021/12/03 22:01:33;;;;;;;1.35;0.50;;;;;;;;;;4965573;28;20045;-79
2021/12/03 22:04:02;;;;;;;0.70;0.70;;;;;;;;;;4978859;28;20449;-73
2021/12/03 22:06:33;;;;;;;2.20;0.57;;;;;;;;;;4982658;28;20035;-75
2021/12/03 22:09:04;;;;;;;0.70;0.60;;;;;;;;;;4961634;28;20498;-72
2021/12/03 22:11:33;;;;;;;1.55;0.50;;;;;;;;;;4994867;28;20046;-76
2021/12/03 22:14:00;;;;;;;2.80;0.90;;;;;;;;;;4990745;28;20052;-77
2021/12/03 22:16:28;;;;;;;1.13;0.70;;;;;;;;;;4977485;28;20485;-76
2021/12/03 22:18:59;;;;;;;1.00;0.70;;;;;;;;;;4976760;28;20524;-73
2021/12/03 22:21:27;;;;;;;1.50;0.82;;;;;;;;;;4992059;28;20420;-74
2021/12/03 22:23:54;;;;;;;3.13;0.93;;;;;;;;;;4977698;28;20042;-75
2021/12/03 22:26:25;;;;;;;1.45;1.00;;;;;;;;;;4976751;28;20077;-74
2021/12/03 22:28:54;;;;;;;2.67;0.82;;;;;;;;;;4976033;28;20051;-75
2021/12/03 22:31:22;;;;;;;0.60;0.60;;;;;;;;;;4993475;28;20043;-75
2021/12/03 22:33:49;;;;;;;1.13;0.98;;;;;;;;;;4976966;28;20042;-72
2021/12/03 22:36:19;;;;;;;4.70;1.27;;;;;;;;;;4992965;28;20038;-75
2021/12/03 22:38:46;;;;;;;2.28;0.75;;;;;;;;;;4993124;28;20457;-75
2021/12/03 22:41:15;;;;;;;0.47;0.47;;;;;;;;;;4991759;28;20054;-75
2021/12/03 22:43:47;;;;;;;1.52;0.55;;;;;;;;;;4993289;28;20507;-75
2021/12/03 22:46:21;;;;;;;0.65;0.40;;;;;;;;;;4992598;28;20042;-78
2021/12/03 22:54:20;;;;;;;0.57;0.40;;;;;;;;;;4990740;28;20476;-78
2021/12/03 22:56:48;;;;;;;0.35;0.30;;;;;;;;;;4976496;28;20092;-75
2021/12/03 22:59:17;;;;;;;2.40;0.50;;;;;;;;;;4975357;28;20038;-78
2021/12/03 23:01:44;;;;;;;1.10;0.30;;;;;;;;;;4992942;28;20046;-75
2021/12/03 23:04:12;;;;;;;0.40;0.40;;;;;;;;;;4991413;28;20042;-72
2021/12/03 23:06:40;;;;;;;0.20;0.20;;;;;;;;;;4992041;28;20133;-76
2021/12/03 23:09:08;;;;;;;0.43;0.30;;;;;;;;;;4975089;28;20054;-75
2021/12/03 23:11:36;;;;;;;1.85;0.40;;;;;;;;;;4975186;28;20057;-72
2021/12/03 23:14:04;;;;;;;0.65;0.30;;;;;;;;;;4989378;28;20046;-75
2021/12/03 23:16:34;;;;;;;0.60;0.50;;;;;;;;;;4990322;28;20045;-74
2021/12/03 23:19:01;;;;;;;0.77;0.60;;;;;;;;;;4992543;28;20049;-73
2021/12/03 23:21:31;;;;;;;4.82;0.52;;;;;;;;;;4991438;28;20414;-75
2021/12/03 23:23:59;;;;;;;3.40;1.00;;;;;;;;;;4992350;28;20042;-76
2021/12/03 23:26:27;;;;;;;0.40;0.20;;;;;;;;;;4975271;28;20047;-72